createdAt,value
2023-11-24T00:00:58.282Z,96493.50
2023-11-24T00:02:59.998Z,96479.97
2023-11-24T00:05:01.630Z,96487.84
2023-11-24T00:07:03.858Z,96476.28
2023-11-24T00:09:05.782Z,96480.75
2023-11-24T00:11:08.733Z,96461.78
2023-11-24T00:13:10.308Z,96464.72
2023-11-24T00:15:11.929Z,96461.47
2023-11-24T00:17:13.519Z,96472.34
2023-11-24T00:19:15.166Z,96472.81
2023-11-24T00:21:16.762Z,96463.22
2023-11-24T00:23:18.313Z,96456.50
2023-11-24T00:25:19.845Z,96447.91
2023-11-24T00:27:22.790Z,96441.63
2023-11-24T00:29:24.318Z,96453.19
2023-11-24T00:31:25.894Z,96441.91
2023-11-24T00:33:27.518Z,96442.25
2023-11-24T00:35:29.066Z,96433.69
2023-11-24T00:37:30.592Z,96428.53
2023-11-24T00:39:32.157Z,96426.75
2023-11-24T00:41:33.689Z,96414.00
2023-11-24T00:43:36.627Z,96405.22
2023-11-24T00:45:38.154Z,96398.78
2023-11-24T00:47:39.737Z,96394.81
2023-11-24T00:49:41.359Z,96392.03
2023-11-24T00:51:42.953Z,96375.34
2023-11-24T00:53:44.490Z,96379.78
2023-11-24T00:55:46.038Z,96364.75
2023-11-24T00:57:47.625Z,96360.63
2023-11-24T00:59:50.527Z,96347.41
2023-11-24T01:01:52.057Z,96339.16
2023-11-24T01:03:53.720Z,96337.81
2023-11-24T01:05:56.595Z,96334.84
2023-11-24T01:07:58.084Z,96334.69
2023-11-24T01:09:59.727Z,96337.66
2023-11-24T01:12:01.303Z,96336.50
2023-11-24T01:14:02.821Z,96333.88
2023-11-24T01:16:06.582Z,96340.47
2023-11-24T01:18:08.284Z,96326.25
2023-11-24T01:20:10.601Z,96333.88
2023-11-24T01:22:12.144Z,96331.56
2023-11-24T01:24:13.663Z,96337.16
2023-11-24T01:26:15.178Z,96328.91
2023-11-24T01:28:16.808Z,96333.38
2023-11-24T01:30:18.361Z,96342.13
2023-11-24T01:32:21.340Z,96347.72
2023-11-24T01:34:22.975Z,96342.28
2023-11-24T01:36:24.662Z,96354.66
2023-11-24T01:38:26.204Z,96354.00
2023-11-24T01:40:27.705Z,96349.88
2023-11-24T01:42:29.290Z,96351.03
2023-11-24T01:44:30.899Z,96363.44
2023-11-24T01:46:32.484Z,96365.56
2023-11-24T01:48:35.570Z,96353.69
2023-11-24T01:50:39.167Z,96360.97
2023-11-24T01:52:41.549Z,96369.53
2023-11-24T01:54:43.102Z,96376.97
2023-11-24T01:56:46.552Z,96371.38
2023-11-24T01:58:48.322Z,96365.09
2023-11-24T02:00:50.355Z,96360.63
2023-11-24T02:02:52.158Z,96346.25
2023-11-24T02:04:55.121Z,96346.09
2023-11-24T02:06:57.175Z,96348.41
2023-11-24T02:08:59.287Z,96335.88
2023-11-24T02:11:01.076Z,96329.78
2023-11-24T02:13:02.716Z,96325.78
2023-11-24T02:15:05.277Z,96321.16
2023-11-24T02:17:06.837Z,96320.31
2023-11-24T02:19:08.411Z,96315.03
2023-11-24T02:21:11.555Z,96315.38
2023-11-24T02:23:14.584Z,96314.03
2023-11-24T02:25:16.119Z,96305.44
2023-11-24T02:27:17.657Z,96307.28
2023-11-24T02:29:19.195Z,96303.47
2023-11-24T02:31:21.258Z,96303.97
2023-11-24T02:33:23.227Z,96296.03
2023-11-24T02:35:24.844Z,96289.44
2023-11-24T02:37:26.420Z,96288.28
2023-11-24T02:39:29.510Z,96298.84
2023-11-24T02:41:31.027Z,96298.84
2023-11-24T02:43:32.567Z,96292.91
2023-11-24T02:45:34.063Z,96293.88
2023-11-24T02:47:35.708Z,96287.78
2023-11-24T02:49:38.015Z,96277.53
2023-11-24T02:51:39.609Z,96275.22
2023-11-24T02:53:41.612Z,96279.53
2023-11-24T02:55:44.620Z,96270.09
2023-11-24T02:57:46.176Z,96278.03
2023-11-24T02:59:47.740Z,96264.50
2023-11-24T03:01:49.296Z,96266.47
2023-11-24T03:03:51.070Z,96255.41
2023-11-24T03:05:52.797Z,96252.94
2023-11-24T03:07:54.361Z,96252.09
2023-11-24T03:09:55.931Z,96248.31
2023-11-24T03:11:59.271Z,96236.75
2023-11-24T03:14:00.812Z,96234.44
2023-11-24T03:16:03.078Z,96239.72
2023-11-24T03:18:04.787Z,96225.53
2023-11-24T03:20:07.105Z,96221.22
2023-11-24T03:22:08.722Z,96215.44
2023-11-24T03:24:10.303Z,96235.44
2023-11-24T03:26:11.846Z,96233.13
2023-11-24T03:28:14.730Z,96229.16
2023-11-24T03:30:16.670Z,96227.50
2023-11-24T03:32:18.294Z,96213.97
2023-11-24T03:34:19.842Z,96207.69
2023-11-24T03:36:21.395Z,96210.66
2023-11-24T03:38:22.944Z,96208.34
2023-11-24T03:40:24.470Z,96204.38
2023-11-24T03:42:26.052Z,96199.75
2023-11-24T03:44:28.945Z,96202.75
2023-11-24T03:46:30.477Z,96195.13
2023-11-24T03:48:32.113Z,96193.50
2023-11-24T03:50:33.645Z,96192.81
2023-11-24T03:52:35.171Z,96185.91
2023-11-24T03:54:36.764Z,96181.28
2023-11-24T03:56:38.297Z,96177.63
2023-11-24T03:58:39.812Z,96182.75
2023-11-24T04:00:43.943Z,96183.25
2023-11-24T04:02:45.567Z,96184.59
2023-11-24T04:04:47.202Z,96184.41
2023-11-24T04:06:48.757Z,96195.81
2023-11-24T04:08:50.316Z,96194.47
2023-11-24T04:10:51.974Z,96186.56
2023-11-24T04:12:53.629Z,96182.59
2023-11-24T04:14:55.150Z,96177.97
2023-11-24T04:16:59.818Z,96173.69
2023-11-24T04:19:02.923Z,96159.50
2023-11-24T04:21:04.613Z,96161.78
2023-11-24T04:23:06.314Z,96158.00
2023-11-24T04:25:08.908Z,96151.22
2023-11-24T04:27:10.445Z,96147.59
2023-11-24T04:29:11.970Z,96154.84
2023-11-24T04:31:13.519Z,96151.38
2023-11-24T04:33:16.457Z,96148.91
2023-11-24T04:35:18.004Z,96147.94
2023-11-24T04:37:19.565Z,96159.50
2023-11-24T04:39:21.081Z,96156.69
2023-11-24T04:41:22.671Z,96152.72
2023-11-24T04:43:24.198Z,96148.59
2023-11-24T04:45:25.699Z,96148.25
2023-11-24T04:47:27.228Z,96140.00
2023-11-24T04:49:30.084Z,96130.75
2023-11-24T04:51:31.883Z,96137.03
2023-11-24T04:53:33.654Z,96138.66
2023-11-24T04:55:35.301Z,96117.84
2023-11-24T04:57:36.808Z,96131.22
2023-11-24T04:59:41.612Z,96110.59
2023-11-24T05:01:43.193Z,96121.31
2023-11-24T05:03:44.828Z,96117.84
2023-11-24T05:05:47.748Z,96120.47
2023-11-24T05:07:49.339Z,96119.16
2023-11-24T05:09:51.085Z,96117.53
2023-11-24T05:11:52.709Z,96119.16
2023-11-24T05:13:54.236Z,96118.47
2023-11-24T05:15:56.128Z,96108.84
2023-11-24T05:17:57.773Z,96114.50
2023-11-24T05:19:59.298Z,96109.53
2023-11-24T05:22:02.159Z,96113.84
2023-11-24T05:24:03.952Z,96112.66
2023-11-24T05:26:05.907Z,96120.78
2023-11-24T05:28:07.526Z,96124.41
2023-11-24T05:30:10.237Z,96119.44
2023-11-24T05:32:11.863Z,96121.25
2023-11-24T05:34:13.500Z,96117.94
2023-11-24T05:36:15.034Z,96125.72
2023-11-24T05:38:17.930Z,96126.72
2023-11-24T05:40:19.593Z,96134.16
2023-11-24T05:42:21.134Z,96121.81
2023-11-24T05:44:22.639Z,96125.81
2023-11-24T05:46:24.392Z,96124.16
2023-11-24T05:48:26.032Z,96128.13
2023-11-24T05:50:27.518Z,96118.56
2023-11-24T05:52:29.170Z,96113.44
2023-11-24T05:54:32.258Z,96115.94
2023-11-24T05:56:33.798Z,96116.41
2023-11-24T05:58:35.387Z,96118.56
2023-11-24T06:00:36.905Z,96115.59
2023-11-24T06:02:38.429Z,96110.97
2023-11-24T06:04:40.028Z,96115.94
2023-11-24T06:06:41.591Z,96124.84
2023-11-24T06:08:43.099Z,96126.00
2023-11-24T06:10:45.999Z,96130.97
2023-11-24T06:12:47.524Z,96135.59
2023-11-24T06:14:49.073Z,96118.91
2023-11-24T06:16:50.648Z,96138.06
2023-11-24T06:18:52.454Z,96128.47
2023-11-24T06:20:54.077Z,96129.28
2023-11-24T06:22:55.663Z,96130.78
2023-11-24T06:24:57.279Z,96133.94
2023-11-24T06:27:00.213Z,96128.78
2023-11-24T06:29:01.785Z,96129.09
2023-11-24T06:31:03.678Z,96125.13
2023-11-24T06:33:05.361Z,96129.41
2023-11-24T06:35:07.989Z,96113.91
2023-11-24T06:37:09.637Z,96116.22
2023-11-24T06:39:11.227Z,96107.00
2023-11-24T06:41:12.803Z,96115.41
2023-11-24T06:43:15.691Z,96109.94
2023-11-24T06:45:17.303Z,96105.84
2023-11-24T06:47:18.850Z,96103.69
2023-11-24T06:49:20.350Z,96094.13
2023-11-24T06:51:21.918Z,96088.03
2023-11-24T06:53:23.463Z,96094.78
2023-11-24T06:55:24.960Z,96089.50
2023-11-24T06:57:26.478Z,96089.84
2023-11-24T06:59:29.394Z,96082.91
2023-11-24T07:01:31.877Z,96093.47
2023-11-24T07:03:33.626Z,96098.41
2023-11-24T07:05:35.279Z,96086.03
2023-11-24T07:07:36.795Z,96094.28
2023-11-24T07:09:38.325Z,96102.03
2023-11-24T07:11:39.881Z,96089.19
2023-11-24T07:13:41.446Z,96094.44
2023-11-24T07:15:44.584Z,96093.78
2023-11-24T07:17:46.291Z,96085.88
2023-11-24T07:19:47.868Z,96088.19
2023-11-24T07:21:49.494Z,96077.00
2023-11-24T07:23:51.013Z,96075.34
2023-11-24T07:25:52.520Z,96072.22
2023-11-24T07:27:54.037Z,96074.00
2023-11-24T07:29:55.566Z,96080.13
2023-11-24T07:31:58.411Z,96079.97
2023-11-24T07:34:00.022Z,96069.38
2023-11-24T07:36:01.697Z,96072.00
2023-11-24T07:38:03.243Z,96067.56
2023-11-24T07:40:05.962Z,96072.50
2023-11-24T07:42:07.542Z,96068.88
2023-11-24T07:44:09.056Z,96073.81
2023-11-24T07:46:10.661Z,96073.81
2023-11-24T07:48:13.681Z,96069.38
2023-11-24T07:50:17.634Z,96045.94
2023-11-24T07:52:19.169Z,96053.03
2023-11-24T07:54:20.971Z,96056.84
2023-11-24T07:56:22.575Z,96051.22
2023-11-24T07:58:24.159Z,96050.22
2023-11-24T08:00:25.703Z,96046.59
2023-11-24T08:02:27.371Z,96043.97
2023-11-24T08:04:30.391Z,96035.72
2023-11-24T08:06:31.963Z,96032.06
2023-11-24T08:08:36.553Z,96029.78
2023-11-24T08:10:38.405Z,96027.97
2023-11-24T08:12:40.004Z,96021.88
2023-11-24T08:14:41.548Z,96024.81
2023-11-24T08:16:43.186Z,96018.06
2023-11-24T08:18:44.776Z,96017.56
2023-11-24T08:20:47.655Z,96015.13
2023-11-24T08:22:49.255Z,96008.34
2023-11-24T08:24:50.772Z,96015.78
2023-11-24T08:26:52.259Z,96013.63
2023-11-24T08:28:53.784Z,96006.72
2023-11-24T08:30:55.326Z,96002.25
2023-11-24T08:32:56.909Z,95998.09
2023-11-24T08:34:58.473Z,96000.09
2023-11-24T08:37:01.430Z,95990.69
2023-11-24T08:39:03.013Z,95994.28
2023-11-24T08:41:10.536Z,96009.00
2023-11-24T08:43:12.123Z,96007.34
2023-11-24T08:45:13.735Z,96010.66
2023-11-24T08:47:15.268Z,96006.38
2023-11-24T08:49:16.994Z,96003.38
2023-11-24T08:51:18.595Z,95997.81
2023-11-24T08:53:21.478Z,95997.81
2023-11-24T08:55:23.146Z,96002.75
2023-11-24T08:57:24.670Z,96012.97
2023-11-24T08:59:26.200Z,96002.06
2023-11-24T09:01:27.773Z,96007.00
2023-11-24T09:03:29.395Z,95998.09
2023-11-24T09:05:30.897Z,95991.81
2023-11-24T09:07:32.452Z,95983.56
2023-11-24T09:09:35.542Z,95984.84
2023-11-24T09:11:37.080Z,96004.19
2023-11-24T09:13:38.611Z,95982.56
2023-11-24T09:15:42.475Z,95970.53
2023-11-24T09:17:44.109Z,95976.28
2023-11-24T09:19:45.657Z,95975.47
2023-11-24T09:21:47.200Z,95971.81
2023-11-24T09:23:48.746Z,95957.78
2023-11-24T09:25:51.707Z,95957.75
2023-11-24T09:27:53.320Z,95971.28
2023-11-24T09:29:54.973Z,95978.25
2023-11-24T09:31:56.530Z,95976.25
2023-11-24T09:33:58.161Z,95986.50
2023-11-24T09:35:59.740Z,95967.03
2023-11-24T09:38:01.327Z,95968.66
2023-11-24T09:40:03.293Z,95967.03
2023-11-24T09:42:10.182Z,95960.44
2023-11-24T09:44:15.372Z,95959.13
2023-11-24T09:46:19.887Z,95962.75
2023-11-24T09:48:24.277Z,95963.59
2023-11-24T09:50:28.042Z,95952.50
2023-11-24T09:52:30.714Z,95949.22
2023-11-24T09:54:33.685Z,95942.25
2023-11-24T09:56:35.914Z,95939.31
2023-11-24T09:58:39.244Z,95937.66
2023-11-24T10:00:41.433Z,95932.22
2023-11-24T10:02:43.646Z,95922.81
2023-11-24T10:04:47.122Z,95919.66
2023-11-24T10:06:49.199Z,95919.47
2023-11-24T10:08:52.325Z,95925.75
2023-11-24T10:11:11.511Z,95912.25
2023-11-24T10:13:13.474Z,95908.63
2023-11-24T10:15:17.264Z,95906.16
2023-11-24T10:17:19.328Z,95893.41
2023-11-24T10:19:23.129Z,95890.03
2023-11-24T10:21:32.337Z,95884.28
2023-11-24T10:23:35.378Z,95883.94
2023-11-24T10:25:37.400Z,95882.75
2023-11-24T10:27:40.406Z,95868.44
2023-11-24T10:29:44.392Z,95882.66
2023-11-24T10:31:47.993Z,95867.97
2023-11-24T10:33:52.111Z,95867.81
2023-11-24T10:35:58.844Z,95866.50
2023-11-24T10:38:02.408Z,95861.75
2023-11-24T10:40:13.091Z,95855.28
2023-11-24T10:42:15.687Z,95845.91
2023-11-24T10:44:22.379Z,95839.63
2023-11-24T10:46:27.215Z,95830.28
2023-11-24T10:48:42.830Z,95817.00
2023-11-24T10:50:54.471Z,95834.63
2023-11-24T10:53:09.349Z,95835.56
2023-11-24T10:55:12.035Z,95832.31
2023-11-24T10:57:20.363Z,95825.38
2023-11-24T10:59:23.009Z,95822.38
2023-11-24T11:01:26.551Z,95821.47
2023-11-24T11:03:29.400Z,95817.22
2023-11-24T11:05:42.810Z,95804.63
2023-11-24T11:07:55.594Z,95787.03
2023-11-24T11:09:59.774Z,95787.13
2023-11-24T11:12:32.664Z,95785.41
2023-11-24T11:14:34.866Z,95769.63
2023-11-24T11:16:39.653Z,95775.47
2023-11-24T11:18:41.873Z,95772.03
2023-11-24T11:20:45.231Z,95769.63
2023-11-24T11:22:47.737Z,95778.28
2023-11-24T11:24:49.906Z,95768.72
2023-11-24T11:26:51.744Z,95767.63
2023-11-24T11:28:57.875Z,95760.03
2023-11-24T11:31:21.009Z,95751.56
2023-11-24T11:33:23.280Z,95753.94
2023-11-24T11:35:28.962Z,95761.41
2023-11-24T11:37:32.826Z,95745.94
2023-11-24T11:39:42.680Z,95758.31
2023-11-24T11:41:47.606Z,95756.69
2023-11-24T11:43:58.171Z,95747.38
2023-11-24T11:46:00.696Z,95754.94
2023-11-24T11:48:02.775Z,95757.13
2023-11-24T11:50:09.136Z,95762.88
2023-11-24T11:52:13.268Z,95759.47
2023-11-24T11:54:18.553Z,95778.81
2023-11-24T11:56:22.780Z,95767.19
2023-11-24T11:58:24.773Z,95759.03
2023-11-24T12:00:26.975Z,95761.41
2023-11-24T12:02:30.208Z,95752.78
2023-11-24T12:04:33.506Z,95746.47
2023-11-24T12:06:36.122Z,95741.53
2023-11-24T12:08:37.957Z,95732.00
2023-11-24T12:10:42.342Z,95721.81
2023-11-24T12:12:45.013Z,95734.28
2023-11-24T12:14:47.137Z,95734.16
2023-11-24T12:16:49.097Z,95730.38
2023-11-24T12:18:52.455Z,95728.34
2023-11-24T12:20:55.049Z,95744.88
2023-11-24T12:22:57.200Z,95743.34
2023-11-24T12:24:59.402Z,95731.88
2023-11-24T12:27:03.507Z,95734.19
2023-11-24T12:29:10.005Z,95721.09
2023-11-24T12:31:11.806Z,95726.34
2023-11-24T12:33:17.033Z,95714.81
2023-11-24T12:35:19.167Z,95712.00
2023-11-24T12:37:21.263Z,95714.66
2023-11-24T12:39:24.690Z,95711.69
2023-11-24T12:41:26.868Z,95709.91
2023-11-24T12:43:32.922Z,95702.66
2023-11-24T12:45:36.489Z,95704.78
2023-11-24T12:47:42.494Z,95693.91
2023-11-24T12:50:00.932Z,95699.53
2023-11-24T12:52:03.478Z,95698.03
2023-11-24T12:54:06.199Z,95697.78
2023-11-24T12:56:08.740Z,95692.03
2023-11-24T12:58:11.044Z,95696.03
2023-11-24T13:00:18.214Z,95685.78
2023-11-24T13:02:20.763Z,95691.72
2023-11-24T13:04:22.804Z,95687.09
2023-11-24T13:06:25.631Z,95697.81
2023-11-24T13:08:27.171Z,95699.28
2023-11-24T13:10:28.716Z,95696.63
2023-11-24T13:12:30.240Z,95688.78
2023-11-24T13:14:31.783Z,95703.44
2023-11-24T13:16:34.677Z,95712.69
2023-11-24T13:18:38.147Z,95720.13
2023-11-24T13:20:39.702Z,95711.91
2023-11-24T13:22:41.635Z,95707.16
2023-11-24T13:24:43.197Z,95705.66
2023-11-24T13:26:44.810Z,95694.75
2023-11-24T13:28:46.403Z,95681.84
2023-11-24T13:30:47.967Z,95683.78
2023-11-24T13:32:51.074Z,95688.84
2023-11-24T13:34:52.688Z,95677.53
2023-11-24T13:36:54.986Z,95671.66
2023-11-24T13:38:57.239Z,95678.88
2023-11-24T13:40:58.752Z,95671.34
2023-11-24T13:43:00.420Z,95667.25
2023-11-24T13:45:02.038Z,95672.69
2023-11-24T13:47:04.006Z,95675.97
2023-11-24T13:49:08.228Z,95671.22
2023-11-24T13:51:09.681Z,95658.91
2023-11-24T13:53:11.211Z,95667.16
2023-11-24T13:55:13.436Z,95657.13
2023-11-24T13:57:15.145Z,95658.31
2023-11-24T13:59:16.715Z,95658.31
2023-11-24T14:01:18.411Z,95666.84
2023-11-24T14:03:20.200Z,95659.47
2023-11-24T14:05:23.396Z,95657.47
2023-11-24T14:07:24.980Z,95647.13
2023-11-24T14:09:26.980Z,95644.97
2023-11-24T14:11:28.504Z,95640.53
2023-11-24T14:13:30.047Z,95641.84
2023-11-24T14:15:31.763Z,95645.31
2023-11-24T14:17:33.308Z,95652.88
2023-11-24T14:19:34.806Z,95640.22
2023-11-24T14:21:38.012Z,95637.91
2023-11-24T14:23:39.654Z,95629.34
2023-11-24T14:25:41.199Z,95632.16
2023-11-24T14:27:42.770Z,95635.59
2023-11-24T14:29:44.252Z,95630.34
2023-11-24T14:31:46.151Z,95632.47
2023-11-24T14:33:47.724Z,95634.97
2023-11-24T14:35:49.245Z,95642.81
2023-11-24T14:37:52.129Z,95645.47
2023-11-24T14:39:53.620Z,95651.06
2023-11-24T14:41:55.155Z,95655.34
2023-11-24T14:43:56.851Z,95648.44
2023-11-24T14:45:58.424Z,95648.75
2023-11-24T14:47:59.983Z,95635.25
2023-11-24T14:50:01.595Z,95630.50
2023-11-24T14:52:03.446Z,95637.91
2023-11-24T14:54:06.727Z,95627.38
2023-11-24T14:56:08.822Z,95638.88
2023-11-24T14:58:10.388Z,95635.09
2023-11-24T15:00:12.777Z,95635.94
2023-11-24T15:02:15.033Z,95651.38
2023-11-24T15:04:20.341Z,95655.66
2023-11-24T15:06:23.905Z,95647.78
2023-11-24T15:08:25.459Z,95657.66
2023-11-24T15:10:28.358Z,95659.28
2023-11-24T15:12:29.987Z,95660.13
2023-11-24T15:14:31.534Z,95669.16
2023-11-24T15:16:33.126Z,95669.31
2023-11-24T15:18:34.670Z,95677.38
2023-11-24T15:20:37.756Z,95679.50
2023-11-24T15:22:39.472Z,95692.34
2023-11-24T15:24:41.069Z,95715.03
2023-11-24T15:26:45.408Z,95743.81
2023-11-24T15:28:46.911Z,95759.47
2023-11-24T15:30:48.795Z,95761.09
2023-11-24T15:32:50.575Z,95764.47
2023-11-24T15:34:52.141Z,95761.03
2023-11-24T15:36:53.644Z,95765.84
2023-11-24T15:38:55.530Z,95754.28
2023-11-24T15:40:57.112Z,95760.81
2023-11-24T15:43:00.033Z,95760.56
2023-11-24T15:45:01.604Z,95750.78
2023-11-24T15:47:03.255Z,95751.22
2023-11-24T15:49:05.737Z,95767.19
2023-11-24T15:51:07.520Z,95756.72
2023-11-24T15:53:09.036Z,95757.06
2023-11-24T15:55:11.812Z,95763.00
2023-11-24T15:57:13.546Z,95761.03
2023-11-24T15:59:16.515Z,95743.53
2023-11-24T16:01:18.317Z,95755.28
2023-11-24T16:03:19.971Z,95756.25
2023-11-24T16:05:21.559Z,95766.03
2023-11-24T16:07:23.122Z,95759.84
2023-11-24T16:09:24.658Z,95762.94
2023-11-24T16:11:26.493Z,95728.84
2023-11-24T16:13:28.048Z,95752.84
2023-11-24T16:15:30.959Z,95754.81
2023-11-24T16:17:32.534Z,95752.28
2023-11-24T16:19:34.145Z,95761.69
2023-11-24T16:21:35.767Z,95752.72
2023-11-24T16:23:37.317Z,95763.88
2023-11-24T16:25:38.829Z,95758.38
2023-11-24T16:27:42.284Z,95754.22
2023-11-24T16:29:43.995Z,95753.63
2023-11-24T16:31:47.585Z,95756.16
2023-11-24T16:33:49.176Z,95749.19
2023-11-24T16:35:50.862Z,95755.84
2023-11-24T16:37:52.483Z,95759.44
2023-11-24T16:39:54.171Z,95748.66
2023-11-24T16:41:56.018Z,95734.25
2023-11-24T16:43:57.610Z,95746.63
2023-11-24T16:45:59.164Z,95752.25
2023-11-24T16:48:02.106Z,95747.31
2023-11-24T16:50:05.432Z,95760.22
2023-11-24T16:52:07.153Z,95760.66
2023-11-24T16:54:08.696Z,95756.09
2023-11-24T16:56:10.226Z,95754.22
2023-11-24T16:58:11.831Z,95758.13
2023-11-24T17:00:14.668Z,95762.75
2023-11-24T17:02:16.328Z,95766.50
2023-11-24T17:04:19.327Z,95770.41
2023-11-24T17:06:20.919Z,95785.16
2023-11-24T17:08:22.427Z,95778.88
2023-11-24T17:10:24.003Z,95779.63
2023-11-24T17:12:25.626Z,95787.41
2023-11-24T17:14:27.152Z,95775.66
2023-11-24T17:16:28.768Z,95780.59
2023-11-24T17:18:30.380Z,95783.66
2023-11-24T17:20:33.230Z,95787.34
2023-11-24T17:22:35.166Z,95786.81
2023-11-24T17:24:36.706Z,95786.75
2023-11-24T17:26:38.540Z,95771.97
2023-11-24T17:28:40.115Z,95791.75
2023-11-24T17:30:41.683Z,95797.00
2023-11-24T17:32:43.380Z,95796.41
2023-11-24T17:34:45.005Z,95797.47
2023-11-24T17:36:48.195Z,95798.00
2023-11-24T17:38:50.403Z,95800.75
2023-11-24T17:40:51.954Z,95799.94
2023-11-24T17:42:53.486Z,95799.13
2023-11-24T17:44:55.039Z,95797.47
2023-11-24T17:46:56.626Z,95787.88
2023-11-24T17:48:58.256Z,95790.56
2023-11-24T17:50:59.855Z,95779.41
2023-11-24T17:53:02.745Z,95764.56
2023-11-24T17:55:04.875Z,95771.28
2023-11-24T17:57:06.487Z,95774.75
2023-11-24T17:59:08.061Z,95778.66
2023-11-24T18:01:09.729Z,95778.94
2023-11-24T18:03:11.417Z,95774.06
2023-11-24T18:05:12.950Z,95778.78
2023-11-24T18:07:14.539Z,95772.06
2023-11-24T18:09:17.449Z,95773.69
2023-11-24T18:11:19.282Z,95773.19
2023-11-24T18:13:20.846Z,95768.75
2023-11-24T18:15:22.445Z,95759.31
2023-11-24T18:17:23.989Z,95769.50
2023-11-24T18:19:25.647Z,95762.59
2023-11-24T18:21:27.219Z,95770.31
2023-11-24T18:23:28.776Z,95765.38
2023-11-24T18:25:31.694Z,95756.22
2023-11-24T18:27:33.233Z,95748.97
2023-11-24T18:29:34.756Z,95752.72
2023-11-24T18:31:36.374Z,95748.88
2023-11-24T18:33:37.965Z,95748.19
2023-11-24T18:35:39.595Z,95750.16
2023-11-24T18:37:41.383Z,95744.91
2023-11-24T18:39:42.995Z,95749.03
2023-11-24T18:41:45.953Z,95755.09
2023-11-24T18:43:47.586Z,95754.66
2023-11-24T18:45:49.184Z,95743.41
2023-11-24T18:47:50.928Z,95739.28
2023-11-24T18:49:52.538Z,95742.34
2023-11-24T18:51:54.082Z,95759.31
2023-11-24T18:53:55.606Z,95745.81
2023-11-24T18:55:57.119Z,95747.25
2023-11-24T18:58:00.003Z,95748.06
2023-11-24T19:00:01.658Z,95735.31
2023-11-24T19:02:03.448Z,95739.59
2023-11-24T19:04:05.450Z,95752.34
2023-11-24T19:06:07.356Z,95767.41
2023-11-24T19:08:08.890Z,95760.81
2023-11-24T19:10:10.591Z,95766.06
2023-11-24T19:12:12.142Z,95766.72
2023-11-24T19:14:15.153Z,95755.63
2023-11-24T19:16:16.757Z,95756.91
2023-11-24T19:18:18.326Z,95763.13
2023-11-24T19:20:19.840Z,95762.16
2023-11-24T19:22:21.391Z,95760.38
2023-11-24T19:24:23.129Z,95759.91
2023-11-24T19:26:24.759Z,95750.53
2023-11-24T19:28:27.387Z,95759.59
2023-11-24T19:30:31.437Z,95743.41
2023-11-24T19:32:33.019Z,95753.38
2023-11-24T19:34:34.622Z,95762.22
2023-11-24T19:36:36.230Z,95758.25
2023-11-24T19:38:37.744Z,95761.19
2023-11-24T19:40:39.351Z,95766.28
2023-11-24T19:42:40.888Z,95742.81
2023-11-24T19:44:42.509Z,95749.13
2023-11-24T19:46:45.580Z,95761.84
2023-11-24T19:48:47.162Z,95751.38
2023-11-24T19:50:49.560Z,95757.28
2023-11-24T19:52:51.060Z,95757.13
2023-11-24T19:54:52.565Z,95768.75
2023-11-24T19:56:54.121Z,95759.69
2023-11-24T19:58:55.617Z,95751.38
2023-11-24T20:00:57.324Z,95748.19
2023-11-24T20:03:00.280Z,95747.31
2023-11-24T20:05:01.887Z,95753.22
2023-11-24T20:07:03.613Z,95747.78
2023-11-24T20:09:05.156Z,95743.88
2023-11-24T20:11:06.706Z,95736.97
2023-11-24T20:13:08.358Z,95745.81
2023-11-24T20:15:10.510Z,95738.25
2023-11-24T20:17:12.158Z,95753.31
2023-11-24T20:19:15.450Z,95755.78
2023-11-24T20:21:16.998Z,95743.50
2023-11-24T20:23:18.572Z,95749.41
2023-11-24T20:25:20.253Z,95752.19
2023-11-24T20:27:21.797Z,95745.38
2023-11-24T20:29:23.574Z,95739.97
2023-11-24T20:31:25.100Z,95741.63
2023-11-24T20:33:26.617Z,95736.06
2023-11-24T20:35:29.489Z,95740.25
2023-11-24T20:37:31.019Z,95732.69
2023-11-24T20:39:32.546Z,95716.81
2023-11-24T20:41:39.422Z,95719.22
2023-11-24T20:43:41.008Z,95712.16
2023-11-24T20:45:42.555Z,95715.69
2023-11-24T20:47:44.175Z,95719.94
2023-11-24T20:49:45.716Z,95714.69
2023-11-24T20:51:48.596Z,95720.94
2023-11-24T20:53:50.107Z,95717.47
2023-11-24T20:55:51.619Z,95720.09
2023-11-24T20:57:53.157Z,95717.47
2023-11-24T20:59:54.711Z,95722.56
2023-11-24T21:01:56.321Z,95726.31
2023-11-24T21:03:57.986Z,95719.94
2023-11-24T21:05:59.581Z,95727.16
2023-11-24T21:08:02.425Z,95716.50
2023-11-24T21:10:04.728Z,95710.75
2023-11-24T21:12:07.360Z,95719.59
2023-11-24T21:14:08.966Z,95717.63
2023-11-24T21:16:10.574Z,95723.69
2023-11-24T21:18:12.354Z,95715.69
2023-11-24T21:20:14.000Z,95731.72
2023-11-24T21:22:15.561Z,95715.16
2023-11-24T21:24:18.547Z,95712.69
2023-11-24T21:26:20.450Z,95704.28
2023-11-24T21:28:22.004Z,95696.72
2023-11-24T21:30:23.506Z,95701.69
2023-11-24T21:32:25.222Z,95705.13
2023-11-24T21:34:26.848Z,95717.41
2023-11-24T21:36:28.432Z,95709.41
2023-11-24T21:38:30.060Z,95695.31
2023-11-24T21:40:33.022Z,95699.56
2023-11-24T21:42:34.583Z,95695.97
2023-11-24T21:44:36.063Z,95708.13
2023-11-24T21:46:37.664Z,95706.47
2023-11-24T21:48:39.189Z,95688.94
2023-11-24T21:50:41.070Z,95710.66
2023-11-24T21:52:42.604Z,95706.09
2023-11-24T21:54:46.149Z,95690.97
2023-11-24T21:56:50.960Z,95685.72
2023-11-24T21:58:52.754Z,95697.84
2023-11-24T22:00:54.247Z,95689.31
2023-11-24T22:02:55.903Z,95703.09
2023-11-24T22:04:57.493Z,95702.13
2023-11-24T22:06:59.069Z,95706.72
2023-11-24T22:09:00.667Z,95703.72
2023-11-24T22:11:02.170Z,95705.00
2023-11-24T22:13:05.177Z,95705.38
2023-11-24T22:15:08.254Z,95703.72
2023-11-24T22:17:09.870Z,95706.19
2023-11-24T22:19:11.684Z,95709.63
2023-11-24T22:21:15.711Z,95700.34
2023-11-24T22:23:18.951Z,95707.75
2023-11-24T22:25:20.541Z,95723.47
2023-11-24T22:27:22.126Z,95719.66
2023-11-24T22:29:25.029Z,95713.91
2023-11-24T22:31:27.339Z,95710.75
2023-11-24T22:33:28.945Z,95705.59
2023-11-24T22:35:30.528Z,95705.59
2023-11-24T22:37:33.522Z,95702.66
2023-11-24T22:39:38.444Z,95684.47
2023-11-24T22:41:39.960Z,95690.22
2023-11-24T22:43:41.601Z,95683.72
2023-11-24T22:45:44.597Z,95689.94
2023-11-24T22:47:46.186Z,95692.78
2023-11-24T22:49:47.770Z,95688.19
2023-11-24T22:51:50.610Z,95680.78
2023-11-24T22:53:52.210Z,95684.06
2023-11-24T22:55:53.762Z,95680.53
2023-11-24T22:57:55.253Z,95684.81
2023-11-24T22:59:56.827Z,95679.56
2023-11-24T23:01:59.909Z,95680.53
2023-11-24T23:04:01.898Z,95682.19
2023-11-24T23:06:03.696Z,95665.47
2023-11-24T23:08:05.919Z,95664.13
2023-11-24T23:10:08.343Z,95678.88
2023-11-24T23:12:09.853Z,95673.94
2023-11-24T23:14:11.393Z,95681.81
2023-11-24T23:16:14.097Z,95672.97
2023-11-24T23:18:17.025Z,95664.28
2023-11-24T23:20:18.755Z,95655.22
2023-11-24T23:22:30.923Z,95641.97
2023-11-24T23:24:36.504Z,95647.66
2023-11-24T23:26:38.269Z,95662.72
2023-11-24T23:28:40.206Z,95663.69
2023-11-24T23:30:41.831Z,95662.88
2023-11-24T23:32:43.503Z,95664.22
2023-11-24T23:34:46.546Z,95666.69
2023-11-24T23:36:48.064Z,95661.22
2023-11-24T23:38:49.733Z,95667.00
2023-11-24T23:40:51.404Z,95668.94
2023-11-24T23:42:52.924Z,95682.13
2023-11-24T23:44:54.399Z,95671.41
2023-11-24T23:46:56.010Z,95669.41
2023-11-24T23:48:57.614Z,95680.28
2023-11-24T23:51:00.515Z,95688.16
2023-11-24T23:53:02.128Z,95693.81
2023-11-24T23:55:04.230Z,95689.09
2023-11-24T23:57:05.966Z,95692.28